createdAt,value
2024-02-27T00:01:50.902Z,13.25
2024-02-27T00:04:37.697Z,15.57
2024-02-27T00:07:26.588Z,12.95
2024-02-27T00:10:15.322Z,11.88
2024-02-27T00:13:03.218Z,12.45
2024-02-27T00:15:51.052Z,13.73
2024-02-27T00:18:37.691Z,10.77
2024-02-27T00:21:24.159Z,15.75
2024-02-27T00:24:10.960Z,14.00
2024-02-27T00:26:58.762Z,13.70
2024-02-27T00:29:45.403Z,12.25
2024-02-27T00:32:31.691Z,11.27
2024-02-27T00:35:18.484Z,11.38
2024-02-27T00:38:05.445Z,13.80
2024-02-27T00:40:52.126Z,15.90
2024-02-27T00:43:40.115Z,15.57
2024-02-27T00:46:26.596Z,13.77
2024-02-27T00:49:13.427Z,12.43
2024-02-27T00:51:59.976Z,12.80
2024-02-27T00:54:46.637Z,11.55
2024-02-27T00:57:33.379Z,12.68
2024-02-27T01:00:21.476Z,14.70
2024-02-27T01:03:08.454Z,15.35
2024-02-27T01:05:54.887Z,12.07
2024-02-27T01:08:41.553Z,13.40
2024-02-27T01:11:28.093Z,13.27
2024-02-27T01:14:14.555Z,12.68
2024-02-27T01:17:02.628Z,13.43
2024-02-27T01:19:49.375Z,14.18
2024-02-27T01:22:35.916Z,17.20
2024-02-27T01:25:22.409Z,13.52
2024-02-27T01:28:09.076Z,12.02
2024-02-27T01:30:55.681Z,12.30
2024-02-27T01:33:44.329Z,14.60
2024-02-27T01:36:32.231Z,14.65
2024-02-27T01:39:18.844Z,13.52
2024-02-27T01:42:05.802Z,14.65
2024-02-27T01:44:53.853Z,14.20
2024-02-27T01:47:40.570Z,11.27
2024-02-27T01:50:28.733Z,15.18
2024-02-27T01:53:15.737Z,12.65
2024-02-27T01:56:02.906Z,15.35
2024-02-27T01:58:49.457Z,12.57
2024-02-27T02:01:37.112Z,14.45
2024-02-27T02:04:23.935Z,16.85
2024-02-27T02:07:12.117Z,14.15
2024-02-27T02:09:59.729Z,12.80
2024-02-27T02:12:46.667Z,15.27
2024-02-27T02:15:33.218Z,13.13
2024-02-27T02:18:19.882Z,16.13
2024-02-27T02:21:07.974Z,11.95
2024-02-27T02:23:56.276Z,13.35
2024-02-27T02:26:43.237Z,13.98
2024-02-27T02:29:29.926Z,12.05
2024-02-27T02:32:16.226Z,16.25
2024-02-27T02:35:02.777Z,10.85
2024-02-27T02:37:51.399Z,11.25
2024-02-27T02:40:38.079Z,13.32
2024-02-27T02:43:24.823Z,10.52
2024-02-27T02:46:11.253Z,14.95
2024-02-27T02:49:02.420Z,14.25
2024-02-27T02:51:49.178Z,14.25
2024-02-27T02:54:37.174Z,11.40
2024-02-27T02:57:23.501Z,15.32
2024-02-27T03:00:10.901Z,11.80
2024-02-27T03:02:57.707Z,13.30
2024-02-27T03:05:44.281Z,13.20
2024-02-27T03:08:30.884Z,17.05
2024-02-27T03:11:19.634Z,16.42
2024-02-27T03:14:07.588Z,16.35
2024-02-27T03:16:55.437Z,12.88
2024-02-27T03:19:42.164Z,13.45
2024-02-27T03:22:28.847Z,11.70
2024-02-27T03:25:15.316Z,14.70
2024-02-27T03:28:03.379Z,13.35
2024-02-27T03:30:50.048Z,15.20
2024-02-27T03:33:36.691Z,15.48
2024-02-27T03:36:23.203Z,13.13
2024-02-27T03:39:10.421Z,12.77
2024-02-27T03:41:57.106Z,14.88
2024-02-27T03:44:47.466Z,17.20
2024-02-27T03:47:34.514Z,12.25
2024-02-27T03:50:21.178Z,17.73
2024-02-27T03:53:08.135Z,15.02
2024-02-27T03:55:54.536Z,15.35
2024-02-27T03:58:41.239Z,17.58
2024-02-27T04:01:29.086Z,13.77
2024-02-27T04:04:15.692Z,16.58
2024-02-27T04:07:02.422Z,18.13
2024-02-27T04:09:48.915Z,14.50
2024-02-27T04:12:35.789Z,14.35
2024-02-27T04:15:22.836Z,17.33
2024-02-27T04:18:10.950Z,15.77
2024-02-27T04:20:57.649Z,16.70
2024-02-27T04:23:44.108Z,15.85
2024-02-27T04:26:30.460Z,15.25
2024-02-27T04:29:16.912Z,17.27
2024-02-27T04:32:04.145Z,16.95
2024-02-27T04:34:52.155Z,17.40
2024-02-27T04:37:38.777Z,18.13
2024-02-27T04:40:25.563Z,21.17
2024-02-27T04:43:12.223Z,16.15
2024-02-27T04:45:58.666Z,19.75
2024-02-27T04:48:45.551Z,17.08
2024-02-27T04:51:33.368Z,15.60
2024-02-27T04:54:19.781Z,17.52
2024-02-27T04:57:07.095Z,17.60
2024-02-27T04:59:53.653Z,18.70
2024-02-27T05:02:40.754Z,18.15
2024-02-27T05:05:27.369Z,18.13
2024-02-27T05:08:15.588Z,22.13
2024-02-27T05:11:01.955Z,17.92
2024-02-27T05:13:48.448Z,22.00
2024-02-27T05:16:34.868Z,19.20
2024-02-27T05:19:21.572Z,16.05
2024-02-27T05:22:07.968Z,17.58
2024-02-27T05:24:56.076Z,18.88
2024-02-27T05:27:42.822Z,18.60
2024-02-27T05:30:29.438Z,18.02
2024-02-27T05:33:16.054Z,18.40
2024-02-27T05:36:02.611Z,18.10
2024-02-27T05:38:50.412Z,19.27
2024-02-27T05:41:38.290Z,21.65
2024-02-27T05:44:24.864Z,23.42
2024-02-27T05:47:11.284Z,23.77
2024-02-27T05:49:58.158Z,23.85
2024-02-27T05:52:44.799Z,21.58
2024-02-27T05:55:31.240Z,17.48
2024-02-27T05:58:20.486Z,22.35
2024-02-27T06:01:06.947Z,24.23
2024-02-27T06:03:53.616Z,21.73
2024-02-27T06:06:40.133Z,24.38
2024-02-27T06:09:26.886Z,24.63
2024-02-27T06:12:13.405Z,23.77
2024-02-27T06:15:02.552Z,22.95
2024-02-27T06:17:49.438Z,16.42
2024-02-27T06:20:53.512Z,22.77
2024-02-27T06:23:39.916Z,23.98
2024-02-27T06:26:27.409Z,24.13
2024-02-27T06:29:14.420Z,21.50
2024-02-27T06:32:04.396Z,22.75
2024-02-27T06:34:51.480Z,23.40
2024-02-27T06:37:37.853Z,25.67
2024-02-27T06:40:24.531Z,27.90
2024-02-27T06:43:11.106Z,22.98
2024-02-27T06:45:57.845Z,25.83
2024-02-27T06:48:46.452Z,27.70
2024-02-27T06:51:32.794Z,22.73
2024-02-27T06:54:19.706Z,20.33
2024-02-27T06:57:07.180Z,24.05
2024-02-27T06:59:53.901Z,19.52
2024-02-27T07:02:40.506Z,19.50
2024-02-27T07:05:35.297Z,27.70
2024-02-27T07:08:26.322Z,22.08
2024-02-27T07:11:12.884Z,25.05
2024-02-27T07:13:59.549Z,23.35
2024-02-27T07:16:46.102Z,22.60
2024-02-27T07:19:32.879Z,22.13
2024-02-27T07:22:21.005Z,23.90
2024-02-27T07:25:09.857Z,27.35
2024-02-27T07:27:56.687Z,23.55
2024-02-27T07:30:44.571Z,26.60
2024-02-27T07:33:31.604Z,25.55
2024-02-27T07:36:18.447Z,30.25
2024-02-27T07:39:06.453Z,26.80
2024-02-27T07:41:52.910Z,24.60
2024-02-27T07:44:39.713Z,25.75
2024-02-27T07:47:26.140Z,30.92
2024-02-27T07:50:12.571Z,34.17
2024-02-27T07:53:00.045Z,26.63
2024-02-27T07:55:48.666Z,28.60
2024-02-27T07:58:35.228Z,32.13
2024-02-27T08:01:21.964Z,37.28
2024-02-27T08:04:08.454Z,25.67
2024-02-27T08:06:55.228Z,31.15
2024-02-27T08:09:41.758Z,29.13
2024-02-27T08:12:29.674Z,24.35
2024-02-27T08:15:16.786Z,23.02
2024-02-27T08:18:03.604Z,27.88
2024-02-27T08:20:50.642Z,22.73
2024-02-27T08:23:37.018Z,24.92
2024-02-27T08:26:23.466Z,21.40
2024-02-27T08:29:11.481Z,25.15
2024-02-27T08:31:58.032Z,22.15
2024-02-27T08:34:44.669Z,21.15
2024-02-27T08:37:31.353Z,21.73
2024-02-27T08:40:18.388Z,19.67
2024-02-27T08:43:05.377Z,18.45
2024-02-27T08:45:52.980Z,18.85
2024-02-27T08:48:39.886Z,17.85
2024-02-27T08:51:26.662Z,23.13
2024-02-27T08:54:13.328Z,17.98
2024-02-27T08:56:59.924Z,15.85
2024-02-27T08:59:48.577Z,13.77
2024-02-27T09:02:39.418Z,19.70
2024-02-27T09:05:26.505Z,14.75
2024-02-27T09:08:15.331Z,14.70
2024-02-27T09:11:02.332Z,13.38
2024-02-27T09:13:49.391Z,12.45
2024-02-27T09:16:35.835Z,14.27
2024-02-27T09:19:24.286Z,13.48
2024-02-27T09:22:10.765Z,14.75
2024-02-27T09:24:57.136Z,12.52
2024-02-27T09:27:43.712Z,17.02
2024-02-27T09:30:30.561Z,15.88
2024-02-27T09:33:17.812Z,15.52
2024-02-27T09:36:06.171Z,14.13
2024-02-27T09:38:52.752Z,12.75
2024-02-27T09:41:50.678Z,12.80
2024-02-27T09:44:40.230Z,13.18
2024-02-27T09:47:28.063Z,14.32
2024-02-27T09:50:19.275Z,12.90
2024-02-27T09:53:09.018Z,11.63
2024-02-27T09:55:57.280Z,16.57
2024-02-27T09:58:44.949Z,14.23
2024-02-27T10:01:33.275Z,12.77
2024-02-27T10:04:21.431Z,14.07
2024-02-27T10:07:10.469Z,12.10
2024-02-27T10:09:58.159Z,14.07
2024-02-27T10:12:45.203Z,10.95
2024-02-27T10:15:31.896Z,13.02
2024-02-27T10:18:19.001Z,12.52
2024-02-27T10:21:06.463Z,15.15
2024-02-27T10:23:52.957Z,11.88
2024-02-27T10:26:40.997Z,9.68
2024-02-27T10:29:29.573Z,12.40
2024-02-27T10:32:19.994Z,10.10
2024-02-27T10:35:07.670Z,9.30
2024-02-27T10:37:54.577Z,10.40
2024-02-27T10:40:41.296Z,11.35
2024-02-27T10:43:29.553Z,12.75
2024-02-27T10:46:17.415Z,8.80
2024-02-27T10:49:04.253Z,9.20
2024-02-27T10:51:53.289Z,10.90
2024-02-27T10:54:40.179Z,8.73
2024-02-27T10:57:27.118Z,8.40
2024-02-27T11:00:16.503Z,11.18
2024-02-27T11:03:07.210Z,12.33
2024-02-27T11:05:53.620Z,11.15
2024-02-27T11:08:41.729Z,7.88
2024-02-27T11:11:28.407Z,9.30
2024-02-27T11:14:19.345Z,9.95
2024-02-27T11:17:12.511Z,10.15
2024-02-27T11:20:00.165Z,10.57
2024-02-27T11:22:47.355Z,10.82
2024-02-27T11:25:34.369Z,9.90
2024-02-27T11:28:21.052Z,11.18
2024-02-27T11:31:08.401Z,11.18
2024-02-27T11:33:58.597Z,8.52
2024-02-27T11:39:36.530Z,9.60
2024-02-27T11:42:27.315Z,7.47
2024-02-27T11:45:15.747Z,10.48
2024-02-27T11:48:02.932Z,8.65
2024-02-27T11:50:50.741Z,10.65
2024-02-27T11:53:39.243Z,8.57
2024-02-27T11:56:26.770Z,7.85
2024-02-27T11:59:13.409Z,10.35
2024-02-27T12:02:05.028Z,8.30
2024-02-27T12:04:52.641Z,9.65
2024-02-27T12:07:40.984Z,7.35
2024-02-27T12:10:27.929Z,7.22
2024-02-27T12:13:15.345Z,8.32
2024-02-27T12:16:02.233Z,6.60
2024-02-27T12:18:49.932Z,7.82
2024-02-27T12:21:36.959Z,7.80
2024-02-27T12:24:25.068Z,7.85
2024-02-27T12:27:11.879Z,7.05
2024-02-27T12:29:58.844Z,7.93
2024-02-27T12:32:46.734Z,6.18
2024-02-27T12:35:33.639Z,9.48
2024-02-27T12:38:20.408Z,8.45
2024-02-27T12:41:09.022Z,11.05
2024-02-27T12:43:55.903Z,7.45
2024-02-27T12:46:42.689Z,7.68
2024-02-27T12:49:29.690Z,7.80
2024-02-27T12:52:17.925Z,8.10
2024-02-27T12:55:06.289Z,6.88
2024-02-27T12:57:54.728Z,7.50
2024-02-27T13:00:41.102Z,9.60
2024-02-27T13:03:28.040Z,10.50
2024-02-27T13:06:15.765Z,9.93
2024-02-27T13:09:04.201Z,8.68
2024-02-27T13:11:50.958Z,10.10
2024-02-27T13:14:38.860Z,7.63
2024-02-27T13:17:25.575Z,7.18
2024-02-27T13:20:13.290Z,5.80
2024-02-27T13:23:05.797Z,8.50
2024-02-27T13:26:01.625Z,7.13
2024-02-27T13:28:48.727Z,9.52
2024-02-27T13:31:37.265Z,9.60
2024-02-27T13:34:24.069Z,6.63
2024-02-27T13:37:10.741Z,8.85
2024-02-27T13:39:57.476Z,6.68
2024-02-27T13:42:44.181Z,6.13
2024-02-27T13:45:30.772Z,6.85
2024-02-27T13:48:19.061Z,6.75
2024-02-27T13:51:06.553Z,7.30
2024-02-27T13:53:53.233Z,7.00
2024-02-27T13:56:39.920Z,7.90
2024-02-27T13:59:26.555Z,7.50
2024-02-27T14:02:13.143Z,6.68
2024-02-27T14:05:01.262Z,8.30
2024-02-27T14:07:49.384Z,7.22
2024-02-27T14:10:39.302Z,7.85
2024-02-27T14:13:26.225Z,8.60
2024-02-27T14:16:13.166Z,10.40
2024-02-27T14:19:00.213Z,7.60
2024-02-27T14:21:48.365Z,6.88
2024-02-27T14:24:34.879Z,10.82
2024-02-27T14:27:21.550Z,7.32
2024-02-27T14:30:09.787Z,7.95
2024-02-27T14:32:56.632Z,7.25
2024-02-27T14:35:43.095Z,7.25
2024-02-27T14:38:31.641Z,7.45
2024-02-27T14:41:18.045Z,6.07
2024-02-27T14:44:08.733Z,6.97
2024-02-27T14:46:55.784Z,6.85
2024-02-27T14:49:43.580Z,6.70
2024-02-27T14:52:30.500Z,7.40
2024-02-27T14:55:18.643Z,9.35
2024-02-27T14:58:05.824Z,10.48
2024-02-27T15:00:52.880Z,9.45
2024-02-27T15:03:39.564Z,9.00
2024-02-27T15:06:26.232Z,9.65
2024-02-27T15:09:13.173Z,9.65
2024-02-27T15:12:06.599Z,10.48
2024-02-27T15:14:53.275Z,8.25
2024-02-27T15:17:40.009Z,7.05
2024-02-27T15:20:27.042Z,10.40
2024-02-27T15:23:13.475Z,9.18
2024-02-27T15:26:00.049Z,9.00
2024-02-27T15:28:48.096Z,10.77
2024-02-27T15:31:34.942Z,10.68
2024-02-27T15:34:21.683Z,11.95
2024-02-27T15:37:08.678Z,8.85
2024-02-27T15:39:55.665Z,9.35
2024-02-27T15:42:42.244Z,9.48
2024-02-27T15:45:30.730Z,12.15
2024-02-27T15:48:17.476Z,7.10
2024-02-27T15:51:04.169Z,10.82
2024-02-27T15:53:52.058Z,10.00
2024-02-27T15:56:38.732Z,8.43
2024-02-27T15:59:25.261Z,10.20
2024-02-27T16:02:13.306Z,8.43
2024-02-27T16:05:01.020Z,8.55
2024-02-27T16:07:50.009Z,10.65
2024-02-27T16:10:37.233Z,8.00
2024-02-27T16:13:23.972Z,8.40
2024-02-27T16:16:10.483Z,9.27
2024-02-27T16:18:58.570Z,8.93
2024-02-27T16:21:45.804Z,8.40
2024-02-27T16:24:35.814Z,9.60
2024-02-27T16:27:22.269Z,7.45
2024-02-27T16:30:10.624Z,11.73
2024-02-27T16:32:57.456Z,10.88
2024-02-27T16:35:45.800Z,9.40
2024-02-27T16:38:33.023Z,9.30
2024-02-27T16:41:19.766Z,10.48
2024-02-27T16:44:07.593Z,12.27
2024-02-27T16:46:55.700Z,9.77
2024-02-27T16:49:42.510Z,9.75
2024-02-27T16:52:30.325Z,10.55
2024-02-27T16:55:17.050Z,8.65
2024-02-27T16:58:04.115Z,11.38
2024-02-27T17:00:50.725Z,9.43
2024-02-27T17:03:38.648Z,11.35
2024-02-27T17:06:27.627Z,10.48
2024-02-27T17:09:17.360Z,9.23
2024-02-27T17:12:03.875Z,8.98
2024-02-27T17:14:50.411Z,13.15
2024-02-27T17:17:37.203Z,9.57
2024-02-27T17:20:24.406Z,10.18
2024-02-27T17:23:16.739Z,11.02
2024-02-27T17:26:06.159Z,10.00
2024-02-27T17:28:52.965Z,12.23
2024-02-27T17:31:39.780Z,11.20
2024-02-27T17:34:27.384Z,14.13
2024-02-27T17:37:14.130Z,10.60
2024-02-27T17:40:00.977Z,11.98
2024-02-27T17:42:48.975Z,11.75
2024-02-27T17:45:35.744Z,10.63
2024-02-27T17:48:22.698Z,11.32
2024-02-27T17:51:09.378Z,12.52
2024-02-27T17:53:56.204Z,11.63
2024-02-27T17:56:43.116Z,12.13
2024-02-27T17:59:31.434Z,12.88
2024-02-27T18:02:17.804Z,11.45
2024-02-27T18:05:04.593Z,14.32
2024-02-27T18:07:51.265Z,11.40
2024-02-27T18:10:37.838Z,12.32
2024-02-27T18:13:24.511Z,13.02
2024-02-27T18:16:14.163Z,13.50
2024-02-27T18:19:00.754Z,13.17
2024-02-27T18:21:47.375Z,12.40
2024-02-27T18:24:34.032Z,14.00
2024-02-27T18:27:21.829Z,17.70
2024-02-27T18:30:11.288Z,11.95
2024-02-27T18:32:59.319Z,12.32
2024-02-27T18:35:48.749Z,17.35
2024-02-27T18:38:35.277Z,12.60
2024-02-27T18:41:21.889Z,12.75
2024-02-27T18:44:08.508Z,14.68
2024-02-27T18:46:56.185Z,16.50
2024-02-27T18:49:44.309Z,14.38
2024-02-27T18:52:30.941Z,17.45
2024-02-27T18:55:17.609Z,13.82
2024-02-27T18:58:06.893Z,15.90
2024-02-27T19:00:53.870Z,14.07
2024-02-27T19:03:40.523Z,17.80
2024-02-27T19:06:28.150Z,16.52
2024-02-27T19:09:15.069Z,15.15
2024-02-27T19:12:01.857Z,19.80
2024-02-27T19:14:48.934Z,16.35
2024-02-27T19:17:35.674Z,16.63
2024-02-27T19:20:22.197Z,18.70
2024-02-27T19:23:09.965Z,15.55
2024-02-27T19:25:56.957Z,22.92
2024-02-27T19:28:44.562Z,17.17
2024-02-27T19:31:32.656Z,16.25
2024-02-27T19:34:19.490Z,39.08
2024-02-27T19:37:06.668Z,25.13
2024-02-27T19:39:54.252Z,18.80
2024-02-27T19:42:42.177Z,14.52
2024-02-27T19:45:28.817Z,14.80
2024-02-27T19:48:15.556Z,13.43
2024-02-27T19:51:01.977Z,14.27
2024-02-27T19:53:49.831Z,18.38
2024-02-27T19:56:37.906Z,18.10
2024-02-27T19:59:24.402Z,19.25
2024-02-27T20:02:11.197Z,17.67
2024-02-27T20:04:57.799Z,17.80
2024-02-27T20:07:44.422Z,18.02
2024-02-27T20:10:31.342Z,20.70
2024-02-27T20:13:21.147Z,17.85
2024-02-27T20:16:07.841Z,25.00
2024-02-27T20:18:56.065Z,18.25
2024-02-27T20:21:43.032Z,18.33
2024-02-27T20:24:29.359Z,15.65
2024-02-27T20:27:16.073Z,18.20
2024-02-27T20:30:05.786Z,21.20
2024-02-27T20:32:52.481Z,18.50
2024-02-27T20:35:39.192Z,23.63
2024-02-27T20:38:25.735Z,20.65
2024-02-27T20:41:12.620Z,19.52
2024-02-27T20:43:59.185Z,23.10
2024-02-27T20:46:46.903Z,20.83
2024-02-27T20:49:33.492Z,17.55
2024-02-27T20:52:19.972Z,15.75
2024-02-27T20:55:08.070Z,18.98
2024-02-27T20:57:55.603Z,21.35
2024-02-27T21:00:42.194Z,21.45
2024-02-27T21:03:30.769Z,19.25
2024-02-27T21:06:17.399Z,19.52
2024-02-27T21:09:05.971Z,24.60
2024-02-27T21:11:52.401Z,23.73
2024-02-27T21:14:39.035Z,28.63
2024-02-27T21:17:26.873Z,22.80
2024-02-27T21:20:15.046Z,22.05
2024-02-27T21:23:01.889Z,22.95
2024-02-27T21:25:48.847Z,25.55
2024-02-27T21:28:35.689Z,27.70
2024-02-27T21:31:22.227Z,35.08
2024-02-27T21:34:09.352Z,32.58
2024-02-27T21:36:58.017Z,27.88
2024-02-27T21:39:44.350Z,28.38
2024-02-27T21:42:31.023Z,29.05
2024-02-27T21:45:18.174Z,25.15
2024-02-27T21:48:05.579Z,31.40
2024-02-27T21:50:52.058Z,28.92
2024-02-27T21:53:40.122Z,30.63
2024-02-27T21:56:26.679Z,32.05
2024-02-27T21:59:15.313Z,38.08
2024-02-27T22:02:01.915Z,35.50
2024-02-27T22:04:48.729Z,33.90
2024-02-27T22:07:35.495Z,32.90
2024-02-27T22:10:23.855Z,30.88
2024-02-27T22:13:10.359Z,39.33
2024-02-27T22:15:57.200Z,37.80
2024-02-27T22:18:43.738Z,35.05
2024-02-27T22:21:30.469Z,39.13
2024-02-27T22:24:19.752Z,35.78
2024-02-27T22:27:07.649Z,33.22
2024-02-27T22:29:54.248Z,36.28
2024-02-27T22:32:40.836Z,33.88
2024-02-27T22:35:27.511Z,33.05
2024-02-27T22:38:14.047Z,32.10
2024-02-27T22:41:02.410Z,34.45
2024-02-27T22:43:49.965Z,37.30
2024-02-27T22:46:36.526Z,34.28
2024-02-27T22:49:23.199Z,37.88
2024-02-27T22:52:09.881Z,38.72
2024-02-27T22:54:56.538Z,32.08
2024-02-27T22:57:44.331Z,35.30
2024-02-27T23:00:33.017Z,35.15
2024-02-27T23:03:19.681Z,37.30
2024-02-27T23:06:06.600Z,36.25
2024-02-27T23:08:53.000Z,38.88
2024-02-27T23:11:39.418Z,34.70
2024-02-27T23:14:26.074Z,41.08
2024-02-27T23:17:14.053Z,39.40
2024-02-27T23:20:00.572Z,41.03
2024-02-27T23:22:47.214Z,47.25
2024-02-27T23:25:33.821Z,41.22
2024-02-27T23:28:25.142Z,47.58
2024-02-27T23:31:11.320Z,43.55
2024-02-27T23:33:59.431Z,40.03
2024-02-27T23:36:46.646Z,40.42
2024-02-27T23:39:33.480Z,46.15
2024-02-27T23:42:20.024Z,40.60
2024-02-27T23:45:07.642Z,44.70
2024-02-27T23:47:53.961Z,38.25
2024-02-27T23:50:41.864Z,40.95
2024-02-27T23:53:28.213Z,40.58
2024-02-27T23:56:14.633Z,37.55
2024-02-27T23:59:01.421Z,39.30
